sensor_id;sensor_type;location;lat;lon;timestamp;P1;durP1;ratioP1;P2;durP2;ratioP2
75220;SDS011;63802;53.232;6.570;2023-04-15T00:00:01;10.65;;;4.32;;
75220;SDS011;63802;53.232;6.570;2023-04-15T00:02:27;12.27;;;4.60;;
75220;SDS011;63802;53.232;6.570;2023-04-15T00:04:53;16.83;;;5.18;;
75220;SDS011;63802;53.232;6.570;2023-04-15T00:07:18;15.90;;;5.47;;
75220;SDS011;63802;53.232;6.570;2023-04-15T00:09:44;13.50;;;4.60;;
75220;SDS011;63802;53.232;6.570;2023-04-15T00:12:10;10.70;;;4.80;;
75220;SDS011;63802;53.232;6.570;2023-04-15T00:14:36;13.48;;;4.50;;
75220;SDS011;63802;53.232;6.570;2023-04-15T00:17:01;14.63;;;5.25;;
75220;SDS011;63802;53.232;6.570;2023-04-15T00:19:28;13.40;;;4.90;;
75220;SDS011;63802;53.232;6.570;2023-04-15T00:21:58;13.68;;;4.90;;
75220;SDS011;63802;53.232;6.570;2023-04-15T00:26:50;13.40;;;4.55;;
75220;SDS011;63802;53.232;6.570;2023-04-15T00:29:16;13.68;;;5.40;;
75220;SDS011;63802;53.232;6.570;2023-04-15T00:31:41;12.07;;;5.43;;
75220;SDS011;63802;53.232;6.570;2023-04-15T00:34:07;17.63;;;5.78;;
75220;SDS011;63802;53.232;6.570;2023-04-15T00:36:33;17.25;;;5.47;;
75220;SDS011;63802;53.232;6.570;2023-04-15T00:38:59;19.48;;;5.63;;
75220;SDS011;63802;53.232;6.570;2023-04-15T00:41:26;18.33;;;5.68;;
75220;SDS011;63802;53.232;6.570;2023-04-15T00:43:52;11.98;;;5.32;;
75220;SDS011;63802;53.232;6.570;2023-04-15T00:46:17;15.05;;;5.93;;
75220;SDS011;63802;53.232;6.570;2023-04-15T00:48:45;12.13;;;5.38;;
75220;SDS011;63802;53.232;6.570;2023-04-15T00:51:11;15.52;;;5.80;;
75220;SDS011;63802;53.232;6.570;2023-04-15T00:53:37;13.55;;;6.30;;
75220;SDS011;63802;53.232;6.570;2023-04-15T00:56:04;13.95;;;5.47;;
75220;SDS011;63802;53.232;6.570;2023-04-15T00:58:30;11.73;;;5.38;;
75220;SDS011;63802;53.232;6.570;2023-04-15T01:00:55;13.55;;;5.60;;
75220;SDS011;63802;53.232;6.570;2023-04-15T01:03:21;13.90;;;4.88;;
75220;SDS011;63802;53.232;6.570;2023-04-15T01:05:48;16.20;;;6.45;;
75220;SDS011;63802;53.232;6.570;2023-04-15T01:08:14;16.48;;;5.57;;
75220;SDS011;63802;53.232;6.570;2023-04-15T01:10:40;15.30;;;6.13;;
75220;SDS011;63802;53.232;6.570;2023-04-15T01:13:05;14.23;;;5.85;;
75220;SDS011;63802;53.232;6.570;2023-04-15T01:15:31;16.15;;;6.05;;
75220;SDS011;63802;53.232;6.570;2023-04-15T01:17:57;14.52;;;5.93;;
75220;SDS011;63802;53.232;6.570;2023-04-15T01:20:23;12.93;;;5.65;;
75220;SDS011;63802;53.232;6.570;2023-04-15T01:22:49;14.27;;;5.80;;
75220;SDS011;63802;53.232;6.570;2023-04-15T01:25:18;20.30;;;6.13;;
75220;SDS011;63802;53.232;6.570;2023-04-15T01:27:52;11.07;;;5.40;;
75220;SDS011;63802;53.232;6.570;2023-04-15T01:30:17;14.77;;;6.00;;
75220;SDS011;63802;53.232;6.570;2023-04-15T01:32:42;17.65;;;6.57;;
75220;SDS011;63802;53.232;6.570;2023-04-15T01:35:08;13.32;;;6.65;;
75220;SDS011;63802;53.232;6.570;2023-04-15T01:37:33;15.63;;;5.75;;
75220;SDS011;63802;53.232;6.570;2023-04-15T01:39:59;14.75;;;6.25;;
75220;SDS011;63802;53.232;6.570;2023-04-15T01:42:25;17.00;;;5.95;;
75220;SDS011;63802;53.232;6.570;2023-04-15T01:44:51;13.80;;;6.20;;
75220;SDS011;63802;53.232;6.570;2023-04-15T01:47:17;17.15;;;6.43;;
75220;SDS011;63802;53.232;6.570;2023-04-15T01:49:43;13.38;;;6.13;;
75220;SDS011;63802;53.232;6.570;2023-04-15T01:52:08;14.50;;;6.22;;
75220;SDS011;63802;53.232;6.570;2023-04-15T01:54:34;14.90;;;6.72;;
75220;SDS011;63802;53.232;6.570;2023-04-15T01:57:00;17.75;;;7.40;;
75220;SDS011;63802;53.232;6.570;2023-04-15T01:59:26;19.27;;;7.55;;
75220;SDS011;63802;53.232;6.570;2023-04-15T02:01:52;16.25;;;6.28;;
75220;SDS011;63802;53.232;6.570;2023-04-15T02:04:19;15.25;;;6.25;;
75220;SDS011;63802;53.232;6.570;2023-04-15T02:06:44;15.60;;;6.35;;
75220;SDS011;63802;53.232;6.570;2023-04-15T02:09:10;17.02;;;7.68;;
75220;SDS011;63802;53.232;6.570;2023-04-15T02:11:36;15.25;;;6.38;;
75220;SDS011;63802;53.232;6.570;2023-04-15T02:14:04;20.67;;;7.43;;
75220;SDS011;63802;53.232;6.570;2023-04-15T02:16:31;21.73;;;8.20;;
75220;SDS011;63802;53.232;6.570;2023-04-15T02:18:58;17.95;;;7.40;;
75220;SDS011;63802;53.232;6.570;2023-04-15T02:21:25;23.25;;;7.85;;
75220;SDS011;63802;53.232;6.570;2023-04-15T02:23:51;17.92;;;7.97;;
75220;SDS011;63802;53.232;6.570;2023-04-15T02:26:17;19.20;;;8.30;;
75220;SDS011;63802;53.232;6.570;2023-04-15T02:28:43;16.27;;;7.85;;
75220;SDS011;63802;53.232;6.570;2023-04-15T02:31:08;24.38;;;9.32;;
75220;SDS011;63802;53.232;6.570;2023-04-15T02:33:34;14.98;;;7.05;;
75220;SDS011;63802;53.232;6.570;2023-04-15T02:36:01;15.38;;;7.35;;
75220;SDS011;63802;53.232;6.570;2023-04-15T02:38:29;23.67;;;8.00;;
75220;SDS011;63802;53.232;6.570;2023-04-15T02:40:55;20.92;;;8.35;;
75220;SDS011;63802;53.232;6.570;2023-04-15T02:43:21;17.52;;;7.22;;
75220;SDS011;63802;53.232;6.570;2023-04-15T02:45:47;17.17;;;7.22;;
75220;SDS011;63802;53.232;6.570;2023-04-15T02:48:12;16.73;;;7.72;;
75220;SDS011;63802;53.232;6.570;2023-04-15T02:50:38;23.23;;;7.97;;
75220;SDS011;63802;53.232;6.570;2023-04-15T02:53:04;20.25;;;8.45;;
75220;SDS011;63802;53.232;6.570;2023-04-15T02:55:30;18.77;;;7.75;;
75220;SDS011;63802;53.232;6.570;2023-04-15T02:57:56;19.27;;;8.00;;
75220;SDS011;63802;53.232;6.570;2023-04-15T03:00:24;20.10;;;7.90;;
75220;SDS011;63802;53.232;6.570;2023-04-15T03:02:50;17.52;;;7.28;;
75220;SDS011;63802;53.232;6.570;2023-04-15T03:05:20;18.75;;;7.95;;
75220;SDS011;63802;53.232;6.570;2023-04-15T03:07:49;19.70;;;7.97;;
75220;SDS011;63802;53.232;6.570;2023-04-15T03:10:15;22.00;;;8.88;;
75220;SDS011;63802;53.232;6.570;2023-04-15T03:12:40;21.80;;;8.00;;
75220;SDS011;63802;53.232;6.570;2023-04-15T03:15:06;26.17;;;8.93;;
75220;SDS011;63802;53.232;6.570;2023-04-15T03:17:32;23.02;;;9.57;;
75220;SDS011;63802;53.232;6.570;2023-04-15T03:19:58;25.45;;;9.30;;
75220;SDS011;63802;53.232;6.570;2023-04-15T03:22:23;22.75;;;9.50;;
75220;SDS011;63802;53.232;6.570;2023-04-15T03:24:50;25.85;;;9.00;;
75220;SDS011;63802;53.232;6.570;2023-04-15T03:27:15;23.88;;;9.27;;
75220;SDS011;63802;53.232;6.570;2023-04-15T03:29:41;23.70;;;9.77;;
75220;SDS011;63802;53.232;6.570;2023-04-15T03:32:06;27.08;;;10.23;;
75220;SDS011;63802;53.232;6.570;2023-04-15T03:34:32;23.98;;;9.50;;
75220;SDS011;63802;53.232;6.570;2023-04-15T03:36:57;23.25;;;9.65;;
75220;SDS011;63802;53.232;6.570;2023-04-15T03:39:22;25.67;;;9.05;;
75220;SDS011;63802;53.232;6.570;2023-04-15T03:41:48;29.67;;;11.38;;
75220;SDS011;63802;53.232;6.570;2023-04-15T03:44:13;24.20;;;10.07;;
75220;SDS011;63802;53.232;6.570;2023-04-15T03:46:38;23.50;;;10.50;;
75220;SDS011;63802;53.232;6.570;2023-04-15T03:49:05;25.88;;;10.00;;
75220;SDS011;63802;53.232;6.570;2023-04-15T03:51:31;24.42;;;9.07;;
75220;SDS011;63802;53.232;6.570;2023-04-15T03:53:56;26.98;;;9.95;;
75220;SDS011;63802;53.232;6.570;2023-04-15T03:56:22;23.48;;;8.57;;
75220;SDS011;63802;53.232;6.570;2023-04-15T03:58:48;27.75;;;9.73;;
75220;SDS011;63802;53.232;6.570;2023-04-15T04:01:14;23.17;;;9.90;;
75220;SDS011;63802;53.232;6.570;2023-04-15T04:03:40;20.42;;;9.30;;
75220;SDS011;63802;53.232;6.570;2023-04-15T04:06:05;22.40;;;8.88;;
75220;SDS011;63802;53.232;6.570;2023-04-15T04:08:32;23.15;;;9.07;;
75220;SDS011;63802;53.232;6.570;2023-04-15T04:10:57;23.83;;;9.80;;
75220;SDS011;63802;53.232;6.570;2023-04-15T04:13:23;21.00;;;8.50;;
75220;SDS011;63802;53.232;6.570;2023-04-15T04:15:48;23.35;;;8.48;;
75220;SDS011;63802;53.232;6.570;2023-04-15T04:18:13;26.70;;;9.80;;
75220;SDS011;63802;53.232;6.570;2023-04-15T04:20:39;27.40;;;10.18;;
75220;SDS011;63802;53.232;6.570;2023-04-15T04:23:05;22.70;;;9.65;;
75220;SDS011;63802;53.232;6.570;2023-04-15T04:25:33;24.90;;;9.77;;
75220;SDS011;63802;53.232;6.570;2023-04-15T04:27:59;23.60;;;9.48;;
75220;SDS011;63802;53.232;6.570;2023-04-15T04:30:24;22.27;;;9.27;;
75220;SDS011;63802;53.232;6.570;2023-04-15T04:32:50;21.23;;;8.57;;
75220;SDS011;63802;53.232;6.570;2023-04-15T04:35:15;21.73;;;9.15;;
75220;SDS011;63802;53.232;6.570;2023-04-15T04:37:41;22.52;;;8.68;;
75220;SDS011;63802;53.232;6.570;2023-04-15T04:40:07;21.85;;;8.48;;
75220;SDS011;63802;53.232;6.570;2023-04-15T04:42:33;25.77;;;10.05;;
75220;SDS011;63802;53.232;6.570;2023-04-15T04:44:59;24.25;;;8.90;;
75220;SDS011;63802;53.232;6.570;2023-04-15T04:47:24;25.67;;;9.75;;
75220;SDS011;63802;53.232;6.570;2023-04-15T04:49:49;21.25;;;8.82;;
75220;SDS011;63802;53.232;6.570;2023-04-15T04:52:15;23.58;;;10.20;;
75220;SDS011;63802;53.232;6.570;2023-04-15T04:54:40;22.90;;;9.20;;
75220;SDS011;63802;53.232;6.570;2023-04-15T04:57:06;26.77;;;10.20;;
75220;SDS011;63802;53.232;6.570;2023-04-15T04:59:32;24.20;;;8.98;;
75220;SDS011;63802;53.232;6.570;2023-04-15T05:01:57;24.35;;;9.40;;
75220;SDS011;63802;53.232;6.570;2023-04-15T05:04:23;29.02;;;10.20;;
75220;SDS011;63802;53.232;6.570;2023-04-15T05:06:48;28.40;;;9.50;;
75220;SDS011;63802;53.232;6.570;2023-04-15T05:09:14;25.40;;;10.43;;
75220;SDS011;63802;53.232;6.570;2023-04-15T05:11:40;24.60;;;9.65;;
75220;SDS011;63802;53.232;6.570;2023-04-15T05:14:05;30.77;;;11.52;;
75220;SDS011;63802;53.232;6.570;2023-04-15T05:16:30;35.60;;;11.27;;
75220;SDS011;63802;53.232;6.570;2023-04-15T05:18:56;29.33;;;12.02;;
75220;SDS011;63802;53.232;6.570;2023-04-15T05:21:22;30.95;;;11.48;;
75220;SDS011;63802;53.232;6.570;2023-04-15T05:23:48;31.80;;;11.48;;
75220;SDS011;63802;53.232;6.570;2023-04-15T05:26:16;26.23;;;10.80;;
75220;SDS011;63802;53.232;6.570;2023-04-15T05:28:42;30.70;;;11.10;;
75220;SDS011;63802;53.232;6.570;2023-04-15T05:31:07;29.08;;;11.15;;
75220;SDS011;63802;53.232;6.570;2023-04-15T05:33:33;32.80;;;11.05;;
75220;SDS011;63802;53.232;6.570;2023-04-15T05:35:59;25.52;;;10.15;;
75220;SDS011;63802;53.232;6.570;2023-04-15T05:38:25;24.35;;;10.95;;
75220;SDS011;63802;53.232;6.570;2023-04-15T05:40:51;24.40;;;10.00;;
75220;SDS011;63802;53.232;6.570;2023-04-15T05:43:16;21.40;;;9.32;;
75220;SDS011;63802;53.232;6.570;2023-04-15T05:45:42;20.15;;;8.88;;
75220;SDS011;63802;53.232;6.570;2023-04-15T05:48:08;23.42;;;9.52;;
75220;SDS011;63802;53.232;6.570;2023-04-15T05:50:33;21.58;;;9.00;;
75220;SDS011;63802;53.232;6.570;2023-04-15T05:52:59;21.40;;;9.43;;
75220;SDS011;63802;53.232;6.570;2023-04-15T05:55:24;23.70;;;8.25;;
75220;SDS011;63802;53.232;6.570;2023-04-15T05:57:50;21.23;;;8.88;;
75220;SDS011;63802;53.232;6.570;2023-04-15T06:00:16;22.90;;;8.48;;
75220;SDS011;63802;53.232;6.570;2023-04-15T06:02:41;21.23;;;8.30;;
75220;SDS011;63802;53.232;6.570;2023-04-15T06:05:07;19.60;;;8.48;;
75220;SDS011;63802;53.232;6.570;2023-04-15T06:07:34;19.63;;;8.35;;
75220;SDS011;63802;53.232;6.570;2023-04-15T06:10:01;22.08;;;8.40;;
75220;SDS011;63802;53.232;6.570;2023-04-15T06:12:27;18.33;;;8.40;;
75220;SDS011;63802;53.232;6.570;2023-04-15T06:14:52;19.02;;;8.98;;
75220;SDS011;63802;53.232;6.570;2023-04-15T06:17:18;18.50;;;7.85;;
75220;SDS011;63802;53.232;6.570;2023-04-15T06:19:43;19.40;;;7.85;;
75220;SDS011;63802;53.232;6.570;2023-04-15T06:22:09;18.63;;;7.85;;
75220;SDS011;63802;53.232;6.570;2023-04-15T06:24:34;19.17;;;7.97;;
75220;SDS011;63802;53.232;6.570;2023-04-15T06:27:01;16.85;;;7.63;;
75220;SDS011;63802;53.232;6.570;2023-04-15T06:29:26;19.40;;;8.35;;
75220;SDS011;63802;53.232;6.570;2023-04-15T06:31:52;19.40;;;8.02;;
75220;SDS011;63802;53.232;6.570;2023-04-15T06:34:17;20.83;;;7.60;;
75220;SDS011;63802;53.232;6.570;2023-04-15T06:36:43;17.75;;;7.93;;
75220;SDS011;63802;53.232;6.570;2023-04-15T06:39:08;18.45;;;7.68;;
75220;SDS011;63802;53.232;6.570;2023-04-15T06:41:34;20.17;;;8.32;;
75220;SDS011;63802;53.232;6.570;2023-04-15T06:44:00;15.20;;;6.70;;
75220;SDS011;63802;53.232;6.570;2023-04-15T06:46:25;17.63;;;6.88;;
75220;SDS011;63802;53.232;6.570;2023-04-15T06:48:51;14.52;;;6.57;;
75220;SDS011;63802;53.232;6.570;2023-04-15T06:51:16;15.50;;;7.25;;
75220;SDS011;63802;53.232;6.570;2023-04-15T06:53:42;17.50;;;6.78;;
75220;SDS011;63802;53.232;6.570;2023-04-15T06:56:08;18.63;;;7.10;;
75220;SDS011;63802;53.232;6.570;2023-04-15T06:58:33;15.25;;;6.85;;
75220;SDS011;63802;53.232;6.570;2023-04-15T07:00:59;15.73;;;6.93;;
75220;SDS011;63802;53.232;6.570;2023-04-15T07:03:25;16.90;;;7.15;;
75220;SDS011;63802;53.232;6.570;2023-04-15T07:05:51;15.90;;;6.70;;
75220;SDS011;63802;53.232;6.570;2023-04-15T07:08:16;16.77;;;6.38;;
75220;SDS011;63802;53.232;6.570;2023-04-15T07:10:43;15.10;;;5.68;;
75220;SDS011;63802;53.232;6.570;2023-04-15T07:13:10;13.80;;;5.65;;
75220;SDS011;63802;53.232;6.570;2023-04-15T07:15:38;13.15;;;5.30;;
75220;SDS011;63802;53.232;6.570;2023-04-15T07:18:03;14.07;;;5.45;;
75220;SDS011;63802;53.232;6.570;2023-04-15T07:20:29;15.68;;;6.07;;
75220;SDS011;63802;53.232;6.570;2023-04-15T07:22:54;10.95;;;4.78;;
75220;SDS011;63802;53.232;6.570;2023-04-15T07:25:20;14.23;;;5.97;;
75220;SDS011;63802;53.232;6.570;2023-04-15T07:27:46;12.32;;;5.40;;
75220;SDS011;63802;53.232;6.570;2023-04-15T07:30:12;13.10;;;5.38;;
75220;SDS011;63802;53.232;6.570;2023-04-15T07:32:37;10.63;;;4.53;;
75220;SDS011;63802;53.232;6.570;2023-04-15T07:35:04;12.23;;;4.85;;
75220;SDS011;63802;53.232;6.570;2023-04-15T07:37:29;10.63;;;4.88;;
75220;SDS011;63802;53.232;6.570;2023-04-15T07:39:55;9.90;;;5.10;;
75220;SDS011;63802;53.232;6.570;2023-04-15T07:42:20;12.45;;;5.47;;
75220;SDS011;63802;53.232;6.570;2023-04-15T07:44:46;14.05;;;4.82;;
75220;SDS011;63802;53.232;6.570;2023-04-15T07:47:12;11.95;;;4.65;;
75220;SDS011;63802;53.232;6.570;2023-04-15T07:49:37;12.23;;;4.78;;
75220;SDS011;63802;53.232;6.570;2023-04-15T07:52:03;8.35;;;3.88;;
75220;SDS011;63802;53.232;6.570;2023-04-15T07:54:28;11.48;;;4.47;;
75220;SDS011;63802;53.232;6.570;2023-04-15T07:56:54;10.88;;;4.50;;
75220;SDS011;63802;53.232;6.570;2023-04-15T07:59:20;8.75;;;4.00;;
75220;SDS011;63802;53.232;6.570;2023-04-15T08:01:46;11.30;;;4.22;;
75220;SDS011;63802;53.232;6.570;2023-04-15T08:04:12;12.98;;;4.85;;
75220;SDS011;63802;53.232;6.570;2023-04-15T08:06:38;9.95;;;4.65;;
75220;SDS011;63802;53.232;6.570;2023-04-15T08:09:04;8.55;;;4.22;;
75220;SDS011;63802;53.232;6.570;2023-04-15T08:11:31;9.43;;;4.30;;
75220;SDS011;63802;53.232;6.570;2023-04-15T08:13:56;8.77;;;4.28;;
75220;SDS011;63802;53.232;6.570;2023-04-15T08:16:23;10.20;;;3.72;;
75220;SDS011;63802;53.232;6.570;2023-04-15T08:18:50;7.45;;;3.65;;
75220;SDS011;63802;53.232;6.570;2023-04-15T08:21:17;7.97;;;3.60;;
75220;SDS011;63802;53.232;6.570;2023-04-15T08:23:44;8.57;;;3.75;;
75220;SDS011;63802;53.232;6.570;2023-04-15T08:26:11;9.82;;;3.50;;
75220;SDS011;63802;53.232;6.570;2023-04-15T08:28:37;11.27;;;3.90;;
75220;SDS011;63802;53.232;6.570;2023-04-15T08:31:04;7.00;;;3.28;;
75220;SDS011;63802;53.232;6.570;2023-04-15T08:33:29;9.00;;;3.65;;
75220;SDS011;63802;53.232;6.570;2023-04-15T08:35:55;8.23;;;3.28;;
75220;SDS011;63802;53.232;6.570;2023-04-15T08:38:22;5.72;;;3.05;;
75220;SDS011;63802;53.232;6.570;2023-04-15T08:40:47;10.13;;;3.40;;
75220;SDS011;63802;53.232;6.570;2023-04-15T08:43:56;6.50;;;2.85;;
75220;SDS011;63802;53.232;6.570;2023-04-15T08:46:08;10.23;;;3.28;;
75220;SDS011;63802;53.232;6.570;2023-04-15T08:48:34;7.32;;;3.20;;
75220;SDS011;63802;53.232;6.570;2023-04-15T08:51:02;6.32;;;2.50;;
75220;SDS011;63802;53.232;6.570;2023-04-15T08:53:28;6.50;;;2.47;;
75220;SDS011;63802;53.232;6.570;2023-04-15T08:55:55;5.30;;;2.30;;
75220;SDS011;63802;53.232;6.570;2023-04-15T08:58:22;7.53;;;2.30;;
75220;SDS011;63802;53.232;6.570;2023-04-15T09:00:48;5.25;;;2.17;;
75220;SDS011;63802;53.232;6.570;2023-04-15T09:03:14;4.18;;;2.42;;
75220;SDS011;63802;53.232;6.570;2023-04-15T09:05:41;4.10;;;2.47;;
75220;SDS011;63802;53.232;6.570;2023-04-15T09:08:07;4.22;;;2.05;;
75220;SDS011;63802;53.232;6.570;2023-04-15T09:10:33;3.95;;;2.28;;
75220;SDS011;63802;53.232;6.570;2023-04-15T09:12:59;7.63;;;2.15;;
75220;SDS011;63802;53.232;6.570;2023-04-15T09:15:25;5.65;;;2.15;;
75220;SDS011;63802;53.232;6.570;2023-04-15T09:17:53;3.58;;;2.05;;
75220;SDS011;63802;53.232;6.570;2023-04-15T09:20:20;2.72;;;1.83;;
75220;SDS011;63802;53.232;6.570;2023-04-15T09:22:46;2.72;;;1.63;;
75220;SDS011;63802;53.232;6.570;2023-04-15T09:27:50;2.22;;;1.50;;
75220;SDS011;63802;53.232;6.570;2023-04-15T09:30:17;4.78;;;1.70;;
75220;SDS011;63802;53.232;6.570;2023-04-15T09:32:50;8.82;;;2.05;;
75220;SDS011;63802;53.232;6.570;2023-04-15T09:35:17;7.53;;;2.53;;
75220;SDS011;63802;53.232;6.570;2023-04-15T09:37:43;4.60;;;1.60;;
75220;SDS011;63802;53.232;6.570;2023-04-15T09:40:08;2.85;;;1.70;;
75220;SDS011;63802;53.232;6.570;2023-04-15T09:42:55;7.93;;;2.08;;
75220;SDS011;63802;53.232;6.570;2023-04-15T09:45:21;5.18;;;1.70;;
75220;SDS011;63802;53.232;6.570;2023-04-15T09:47:47;3.53;;;1.70;;
75220;SDS011;63802;53.232;6.570;2023-04-15T09:50:27;4.13;;;1.55;;
75220;SDS011;63802;53.232;6.570;2023-04-15T09:52:53;2.75;;;1.48;;
75220;SDS011;63802;53.232;6.570;2023-04-15T09:55:19;3.35;;;1.50;;
75220;SDS011;63802;53.232;6.570;2023-04-15T09:57:46;2.47;;;1.60;;
75220;SDS011;63802;53.232;6.570;2023-04-15T10:00:12;2.40;;;1.40;;
75220;SDS011;63802;53.232;6.570;2023-04-15T10:02:41;3.10;;;1.50;;
75220;SDS011;63802;53.232;6.570;2023-04-15T10:05:10;6.67;;;1.80;;
75220;SDS011;63802;53.232;6.570;2023-04-15T10:07:39;5.13;;;1.30;;
75220;SDS011;63802;53.232;6.570;2023-04-15T10:10:06;2.05;;;1.40;;
75220;SDS011;63802;53.232;6.570;2023-04-15T10:12:33;3.92;;;1.45;;
75220;SDS011;63802;53.232;6.570;2023-04-15T10:15:04;2.25;;;1.52;;
75220;SDS011;63802;53.232;6.570;2023-04-15T10:17:31;3.15;;;1.65;;
75220;SDS011;63802;53.232;6.570;2023-04-15T10:20:02;3.25;;;1.70;;
75220;SDS011;63802;53.232;6.570;2023-04-15T10:22:30;6.90;;;2.25;;
75220;SDS011;63802;53.232;6.570;2023-04-15T10:24:56;4.35;;;2.03;;
75220;SDS011;63802;53.232;6.570;2023-04-15T10:27:23;4.95;;;1.60;;
75220;SDS011;63802;53.232;6.570;2023-04-15T10:29:50;4.78;;;1.92;;
75220;SDS011;63802;53.232;6.570;2023-04-15T10:32:17;8.45;;;2.22;;
75220;SDS011;63802;53.232;6.570;2023-04-15T10:34:45;6.90;;;2.20;;
75220;SDS011;63802;53.232;6.570;2023-04-15T10:37:11;4.00;;;2.28;;
75220;SDS011;63802;53.232;6.570;2023-04-15T10:42:11;5.57;;;2.40;;
75220;SDS011;63802;53.232;6.570;2023-04-15T10:44:40;6.18;;;2.47;;
75220;SDS011;63802;53.232;6.570;2023-04-15T10:47:26;7.88;;;2.30;;
75220;SDS011;63802;53.232;6.570;2023-04-15T10:49:59;3.97;;;2.10;;
75220;SDS011;63802;53.232;6.570;2023-04-15T10:52:26;5.00;;;2.15;;
75220;SDS011;63802;53.232;6.570;2023-04-15T10:57:44;5.75;;;2.33;;
75220;SDS011;63802;53.232;6.570;2023-04-15T11:00:14;3.20;;;2.17;;
75220;SDS011;63802;53.232;6.570;2023-04-15T11:05:21;6.15;;;2.17;;
75220;SDS011;63802;53.232;6.570;2023-04-15T11:12:41;6.85;;;2.25;;
75220;SDS011;63802;53.232;6.570;2023-04-15T11:17:57;5.00;;;2.17;;
75220;SDS011;63802;53.232;6.570;2023-04-15T11:20:35;4.95;;;1.40;;
75220;SDS011;63802;53.232;6.570;2023-04-15T11:23:03;6.72;;;1.75;;
75220;SDS011;63802;53.232;6.570;2023-04-15T11:25:30;3.80;;;1.73;;
75220;SDS011;63802;53.232;6.570;2023-04-15T11:27:57;7.05;;;2.30;;
75220;SDS011;63802;53.232;6.570;2023-04-15T11:30:24;7.57;;;1.85;;
75220;SDS011;63802;53.232;6.570;2023-04-15T11:32:53;7.40;;;2.03;;
75220;SDS011;63802;53.232;6.570;2023-04-15T11:35:20;4.30;;;1.80;;
75220;SDS011;63802;53.232;6.570;2023-04-15T11:37:46;13.88;;;2.47;;
75220;SDS011;63802;53.232;6.570;2023-04-15T11:40:13;11.07;;;2.05;;
75220;SDS011;63802;53.232;6.570;2023-04-15T11:42:39;8.30;;;1.73;;
75220;SDS011;63802;53.232;6.570;2023-04-15T11:45:10;7.28;;;2.40;;
75220;SDS011;63802;53.232;6.570;2023-04-15T11:47:37;6.18;;;2.88;;
75220;SDS011;63802;53.232;6.570;2023-04-15T11:50:19;9.05;;;2.10;;
75220;SDS011;63802;53.232;6.570;2023-04-15T11:55:30;9.73;;;2.47;;
75220;SDS011;63802;53.232;6.570;2023-04-15T11:58:08;7.35;;;2.45;;
75220;SDS011;63802;53.232;6.570;2023-04-15T12:00:36;5.65;;;1.98;;
75220;SDS011;63802;53.232;6.570;2023-04-15T12:03:13;7.13;;;1.95;;
75220;SDS011;63802;53.232;6.570;2023-04-15T12:11:50;5.40;;;2.03;;
75220;SDS011;63802;53.232;6.570;2023-04-15T12:14:25;7.85;;;2.05;;
75220;SDS011;63802;53.232;6.570;2023-04-15T12:16:53;6.75;;;1.90;;
75220;SDS011;63802;53.232;6.570;2023-04-15T12:19:37;9.93;;;2.17;;
75220;SDS011;63802;53.232;6.570;2023-04-15T12:22:04;12.52;;;1.90;;
75220;SDS011;63802;53.232;6.570;2023-04-15T12:24:33;7.03;;;2.25;;
75220;SDS011;63802;53.232;6.570;2023-04-15T12:27:00;7.90;;;1.67;;
75220;SDS011;63802;53.232;6.570;2023-04-15T12:29:37;9.48;;;1.92;;
75220;SDS011;63802;53.232;6.570;2023-04-15T12:32:05;9.98;;;1.70;;
75220;SDS011;63802;53.232;6.570;2023-04-15T12:34:35;4.75;;;2.15;;
75220;SDS011;63802;53.232;6.570;2023-04-15T12:37:04;6.53;;;1.45;;
75220;SDS011;63802;53.232;6.570;2023-04-15T12:39:34;4.68;;;1.50;;
75220;SDS011;63802;53.232;6.570;2023-04-15T12:42:01;4.45;;;2.00;;
75220;SDS011;63802;53.232;6.570;2023-04-15T12:44:28;3.55;;;1.80;;
75220;SDS011;63802;53.232;6.570;2023-04-15T12:46:54;5.82;;;1.40;;
75220;SDS011;63802;53.232;6.570;2023-04-15T12:49:20;9.38;;;2.20;;
75220;SDS011;63802;53.232;6.570;2023-04-15T12:51:50;4.25;;;1.70;;
75220;SDS011;63802;53.232;6.570;2023-04-15T12:54:17;10.57;;;2.10;;
75220;SDS011;63802;53.232;6.570;2023-04-15T12:56:43;4.28;;;1.73;;
75220;SDS011;63802;53.232;6.570;2023-04-15T12:59:10;7.22;;;1.90;;
75220;SDS011;63802;53.232;6.570;2023-04-15T13:01:36;12.75;;;1.88;;
75220;SDS011;63802;53.232;6.570;2023-04-15T13:04:02;8.25;;;1.83;;
75220;SDS011;63802;53.232;6.570;2023-04-15T13:06:28;9.90;;;1.98;;
75220;SDS011;63802;53.232;6.570;2023-04-15T13:08:54;5.82;;;1.65;;
75220;SDS011;63802;53.232;6.570;2023-04-15T13:11:21;4.93;;;2.10;;
75220;SDS011;63802;53.232;6.570;2023-04-15T13:13:46;6.93;;;1.80;;
75220;SDS011;63802;53.232;6.570;2023-04-15T13:16:12;5.05;;;1.55;;
75220;SDS011;63802;53.232;6.570;2023-04-15T13:18:37;7.50;;;1.80;;
75220;SDS011;63802;53.232;6.570;2023-04-15T13:21:03;7.70;;;1.90;;
75220;SDS011;63802;53.232;6.570;2023-04-15T13:23:31;7.10;;;1.92;;
75220;SDS011;63802;53.232;6.570;2023-04-15T13:25:57;5.47;;;1.75;;
75220;SDS011;63802;53.232;6.570;2023-04-15T13:28:22;10.32;;;2.15;;
75220;SDS011;63802;53.232;6.570;2023-04-15T13:30:48;6.85;;;1.80;;
75220;SDS011;63802;53.232;6.570;2023-04-15T13:33:13;11.10;;;2.22;;
75220;SDS011;63802;53.232;6.570;2023-04-15T13:35:40;4.03;;;1.80;;
75220;SDS011;63802;53.232;6.570;2023-04-15T13:38:05;6.97;;;1.65;;
75220;SDS011;63802;53.232;6.570;2023-04-15T13:40:31;5.60;;;1.77;;
75220;SDS011;63802;53.232;6.570;2023-04-15T13:42:56;5.20;;;2.13;;
75220;SDS011;63802;53.232;6.570;2023-04-15T13:45:22;7.13;;;2.30;;
75220;SDS011;63802;53.232;6.570;2023-04-15T13:47:48;14.85;;;2.15;;
75220;SDS011;63802;53.232;6.570;2023-04-15T13:50:13;6.38;;;2.40;;
75220;SDS011;63802;53.232;6.570;2023-04-15T13:52:39;9.23;;;2.35;;
75220;SDS011;63802;53.232;6.570;2023-04-15T13:55:04;10.73;;;2.40;;
75220;SDS011;63802;53.232;6.570;2023-04-15T13:57:31;11.10;;;2.28;;
75220;SDS011;63802;53.232;6.570;2023-04-15T13:59:56;3.38;;;2.13;;
75220;SDS011;63802;53.232;6.570;2023-04-15T14:02:22;9.63;;;2.30;;
75220;SDS011;63802;53.232;6.570;2023-04-15T14:04:48;6.97;;;2.35;;
75220;SDS011;63802;53.232;6.570;2023-04-15T14:07:13;7.22;;;2.63;;
75220;SDS011;63802;53.232;6.570;2023-04-15T14:09:45;8.10;;;2.30;;
75220;SDS011;63802;53.232;6.570;2023-04-15T14:12:12;6.57;;;2.00;;
75220;SDS011;63802;53.232;6.570;2023-04-15T14:14:38;7.93;;;2.30;;
75220;SDS011;63802;53.232;6.570;2023-04-15T14:17:04;8.63;;;2.30;;
75220;SDS011;63802;53.232;6.570;2023-04-15T14:19:30;10.02;;;2.45;;
75220;SDS011;63802;53.232;6.570;2023-04-15T14:21:56;9.40;;;2.10;;
75220;SDS011;63802;53.232;6.570;2023-04-15T14:24:22;7.32;;;2.25;;
75220;SDS011;63802;53.232;6.570;2023-04-15T14:26:47;13.25;;;2.88;;
75220;SDS011;63802;53.232;6.570;2023-04-15T14:29:13;8.75;;;2.53;;
75220;SDS011;63802;53.232;6.570;2023-04-15T14:31:39;8.80;;;2.15;;
75220;SDS011;63802;53.232;6.570;2023-04-15T14:34:04;8.90;;;2.90;;
75220;SDS011;63802;53.232;6.570;2023-04-15T14:36:30;9.68;;;3.72;;
75220;SDS011;63802;53.232;6.570;2023-04-15T14:38:56;10.68;;;2.70;;
75220;SDS011;63802;53.232;6.570;2023-04-15T14:41:22;18.05;;;2.75;;
75220;SDS011;63802;53.232;6.570;2023-04-15T14:43:47;11.05;;;2.53;;
75220;SDS011;63802;53.232;6.570;2023-04-15T14:46:13;8.02;;;2.20;;
75220;SDS011;63802;53.232;6.570;2023-04-15T14:48:39;11.48;;;2.45;;
75220;SDS011;63802;53.232;6.570;2023-04-15T14:51:04;10.18;;;2.92;;
75220;SDS011;63802;53.232;6.570;2023-04-15T14:53:30;9.20;;;2.70;;
75220;SDS011;63802;53.232;6.570;2023-04-15T14:55:55;8.68;;;2.92;;
75220;SDS011;63802;53.232;6.570;2023-04-15T14:58:21;9.40;;;3.10;;
75220;SDS011;63802;53.232;6.570;2023-04-15T15:00:47;5.75;;;3.00;;
75220;SDS011;63802;53.232;6.570;2023-04-15T15:03:12;10.02;;;2.72;;